createdAt,value
2022-08-28T00:01:02.428Z,101585.81
2022-08-28T00:03:28.795Z,101581.81
2022-08-28T00:05:56.714Z,101582.53
2022-08-28T00:08:23.155Z,101576.06
2022-08-28T00:10:50.838Z,101580.03
2022-08-28T00:13:18.195Z,101586.50
2022-08-28T00:15:45.362Z,101584.81
2022-08-28T00:18:12.257Z,101583.25
2022-08-28T00:20:39.099Z,101574.00
2022-08-28T00:23:06.197Z,101582.22
2022-08-28T00:25:34.307Z,101586.09
2022-08-28T00:28:05.536Z,101585.75
2022-08-28T00:30:38.339Z,101599.50
2022-08-28T00:33:06.018Z,101591.63
2022-08-28T00:35:32.694Z,101600.19
2022-08-28T00:37:59.016Z,101594.91
2022-08-28T00:40:30.535Z,101603.31
2022-08-28T00:43:00.234Z,101597.00
2022-08-28T00:45:28.329Z,101594.44
2022-08-28T00:47:54.658Z,101595.94
2022-08-28T00:50:23.549Z,101601.38
2022-08-28T00:52:53.063Z,101594.25
2022-08-28T00:55:21.266Z,101597.50
2022-08-28T00:57:49.409Z,101599.19
2022-08-28T01:00:18.648Z,101595.06
2022-08-28T01:02:46.448Z,101598.44
2022-08-28T01:05:13.900Z,101597.13
2022-08-28T01:07:40.315Z,101600.28
2022-08-28T01:10:08.115Z,101595.28
2022-08-28T01:12:34.895Z,101601.34
2022-08-28T01:15:03.051Z,101612.22
2022-08-28T01:17:31.312Z,101611.94
2022-08-28T01:20:02.288Z,101612.59
2022-08-28T01:22:30.934Z,101607.28
2022-08-28T01:25:00.605Z,101606.97
2022-08-28T01:27:26.958Z,101605.28
2022-08-28T01:29:53.545Z,101605.78
2022-08-28T01:32:27.308Z,101606.63
2022-08-28T01:34:53.634Z,101605.94
2022-08-28T01:37:20.198Z,101608.19
2022-08-28T01:39:46.510Z,101612.03
2022-08-28T01:42:14.218Z,101610.03
2022-08-28T01:44:40.550Z,101611.72
2022-08-28T01:47:06.863Z,101614.75
2022-08-28T01:49:33.283Z,101618.78
2022-08-28T01:51:59.589Z,101617.00
2022-08-28T01:54:26.500Z,101626.03
2022-08-28T01:56:53.781Z,101631.22
2022-08-28T01:59:21.618Z,101628.09
2022-08-28T02:01:48.215Z,101628.63
2022-08-28T02:04:14.690Z,101629.44
2022-08-28T02:06:41.331Z,101628.97
2022-08-28T02:09:11.602Z,101630.84
2022-08-28T02:11:41.313Z,101635.84
2022-08-28T02:14:10.678Z,101636.69
2022-08-28T02:16:38.325Z,101643.88
2022-08-28T02:19:04.648Z,101635.53
2022-08-28T02:21:31.049Z,101640.91
2022-08-28T02:23:57.351Z,101640.06
2022-08-28T02:26:23.661Z,101643.03
2022-08-28T02:28:49.969Z,101645.88
2022-08-28T02:31:16.361Z,101648.38
2022-08-28T02:33:44.683Z,101650.56
2022-08-28T02:36:12.004Z,101647.56
2022-08-28T02:38:38.473Z,101648.56
2022-08-28T02:41:05.259Z,101646.72
2022-08-28T02:43:31.560Z,101651.06
2022-08-28T02:45:57.971Z,101651.56
2022-08-28T02:48:27.235Z,101645.22
2022-08-28T02:50:57.424Z,101643.88
2022-08-28T02:53:23.734Z,101642.19
2022-08-28T02:55:50.043Z,101646.06
2022-08-28T02:58:16.387Z,101653.06
2022-08-28T03:00:42.727Z,101642.72
2022-08-28T03:03:09.061Z,101647.22
2022-08-28T03:05:35.361Z,101651.22
2022-08-28T03:08:03.756Z,101650.91
2022-08-28T03:10:30.109Z,101648.03
2022-08-28T03:12:56.415Z,101655.06
2022-08-28T03:15:22.743Z,101655.41
2022-08-28T03:17:49.073Z,101654.75
2022-08-28T03:20:17.066Z,101658.25
2022-08-28T03:22:43.373Z,101658.75
2022-08-28T03:25:11.266Z,101657.06
2022-08-28T03:27:37.607Z,101653.41
2022-08-28T03:30:04.614Z,101657.06
2022-08-28T03:32:30.914Z,101660.59
2022-08-28T03:34:57.239Z,101664.25
2022-08-28T03:37:23.618Z,101654.41
2022-08-28T03:39:49.944Z,101659.22
2022-08-28T03:42:17.622Z,101656.91
2022-08-28T03:44:43.992Z,101662.41
2022-08-28T03:47:10.309Z,101667.09
2022-08-28T03:49:36.631Z,101660.06
2022-08-28T03:52:03.236Z,101667.75
2022-08-28T03:54:29.547Z,101664.25
2022-08-28T03:56:55.869Z,101674.94
2022-08-28T03:59:26.652Z,101674.44
2022-08-28T04:01:58.084Z,101670.56
2022-08-28T04:04:24.384Z,101675.06
2022-08-28T04:06:50.680Z,101674.41
2022-08-28T04:09:17.015Z,101689.63
2022-08-28T04:11:43.310Z,101679.25
2022-08-28T04:14:09.806Z,101685.41
2022-08-28T04:16:37.535Z,101682.91
2022-08-28T04:19:04.017Z,101691.41
2022-08-28T04:21:30.359Z,101691.41
2022-08-28T04:23:56.706Z,101687.19
2022-08-28T04:26:23.930Z,101697.25
2022-08-28T04:28:52.640Z,101695.03
2022-08-28T04:31:32.367Z,101693.53
2022-08-28T04:34:01.183Z,101708.03
2022-08-28T04:36:27.523Z,101693.19
2022-08-28T04:38:53.847Z,101699.53
2022-08-28T04:41:20.171Z,101708.69
2022-08-28T04:43:46.499Z,101702.28
2022-08-28T04:46:14.628Z,101692.38
2022-08-28T04:48:41.738Z,101700.53
2022-08-28T04:51:11.195Z,101698.38
2022-08-28T04:53:38.144Z,101697.53
2022-08-28T04:56:05.651Z,101693.03
2022-08-28T04:58:32.369Z,101696.38
2022-08-28T05:00:58.953Z,101703.72
2022-08-28T05:03:25.367Z,101706.53
2022-08-28T05:05:53.794Z,101709.22
2022-08-28T05:08:22.655Z,101714.41
2022-08-28T05:10:49.145Z,101710.56
2022-08-28T05:13:16.021Z,101713.25
2022-08-28T05:15:43.371Z,101714.94
2022-08-28T05:18:09.702Z,101720.94
2022-08-28T05:20:36.318Z,101727.78
2022-08-28T05:23:02.722Z,101731.16
2022-08-28T05:25:30.476Z,101727.50
2022-08-28T05:27:56.807Z,101731.84
2022-08-28T05:30:23.115Z,101730.69
2022-08-28T05:32:49.430Z,101736.53
2022-08-28T05:35:15.759Z,101734.75
2022-08-28T05:37:44.056Z,101731.91
2022-08-28T05:40:10.560Z,101735.41
2022-08-28T05:42:39.133Z,101736.78
2022-08-28T05:45:06.205Z,101739.13
2022-08-28T05:47:32.520Z,101742.16
2022-08-28T05:49:59.115Z,101737.66
2022-08-28T05:52:25.431Z,101744.88
2022-08-28T05:54:51.740Z,101747.53
2022-08-28T05:57:18.103Z,101744.72
2022-08-28T05:59:45.757Z,101745.94
2022-08-28T06:02:12.103Z,101754.59
2022-08-28T06:04:38.520Z,101753.28
2022-08-28T06:07:04.952Z,101758.81
2022-08-28T06:09:31.277Z,101754.13
2022-08-28T06:11:58.503Z,101755.97
2022-08-28T06:14:25.326Z,101754.97
2022-08-28T06:16:54.626Z,101752.81
2022-08-28T06:19:22.430Z,101754.47
2022-08-28T06:21:49.465Z,101759.00
2022-08-28T06:24:15.806Z,101755.31
2022-08-28T06:26:42.143Z,101759.00
2022-08-28T06:29:09.559Z,101766.50
2022-08-28T06:31:36.219Z,101769.19
2022-08-28T06:34:04.222Z,101766.00
2022-08-28T06:36:31.300Z,101767.34
2022-08-28T06:38:58.228Z,101777.22
2022-08-28T06:41:25.009Z,101767.19
2022-08-28T06:43:51.333Z,101777.41
2022-08-28T06:46:17.890Z,101782.28
2022-08-28T06:48:44.261Z,101773.13
2022-08-28T06:51:12.354Z,101776.66
2022-08-28T06:53:39.092Z,101776.34
2022-08-28T06:56:06.691Z,101781.56
2022-08-28T06:58:33.716Z,101779.72
2022-08-28T07:01:03.017Z,101773.22
2022-08-28T07:03:29.539Z,101769.25
2022-08-28T07:05:56.175Z,101767.94
2022-08-28T07:08:23.860Z,101767.44
2022-08-28T07:10:50.180Z,101767.75
2022-08-28T07:13:16.512Z,101770.28
2022-08-28T07:15:42.865Z,101781.00
2022-08-28T07:18:09.256Z,101781.66
2022-08-28T07:20:35.575Z,101783.13
2022-08-28T07:23:01.882Z,101775.06
2022-08-28T07:25:29.534Z,101780.28
2022-08-28T07:27:55.842Z,101777.72
2022-08-28T07:30:22.514Z,101781.22
2022-08-28T07:32:48.923Z,101785.94
2022-08-28T07:35:15.543Z,101796.97
2022-08-28T07:37:41.859Z,101793.78
2022-08-28T07:40:08.907Z,101788.88
2022-08-28T07:42:39.059Z,101796.59
2022-08-28T07:45:05.874Z,101792.88
2022-08-28T07:47:32.204Z,101800.91
2022-08-28T07:49:58.914Z,101797.34
2022-08-28T07:52:25.283Z,101800.81
2022-08-28T07:54:51.582Z,101798.06
2022-08-28T07:57:17.943Z,101804.06
2022-08-28T07:59:45.602Z,101797.47
2022-08-28T08:02:11.897Z,101804.63
2022-08-28T08:04:38.369Z,101807.44
2022-08-28T08:07:04.795Z,101804.41
2022-08-28T08:09:31.582Z,101804.50
2022-08-28T08:11:57.926Z,101807.41
2022-08-28T08:14:24.339Z,101803.53
2022-08-28T08:16:52.015Z,101807.28
2022-08-28T08:19:18.336Z,101813.31
2022-08-28T08:21:46.047Z,101813.66
2022-08-28T08:24:12.446Z,101812.34
2022-08-28T08:26:58.837Z,101815.09
2022-08-28T08:29:27.146Z,101813.09
2022-08-28T08:31:59.390Z,101822.81
2022-08-28T08:34:25.714Z,101817.38
2022-08-28T08:36:52.022Z,101826.16
2022-08-28T08:39:18.360Z,101822.19
2022-08-28T08:41:46.200Z,101824.50
2022-08-28T08:44:17.073Z,101823.72
2022-08-28T08:46:57.843Z,101824.66
2022-08-28T08:49:28.385Z,101809.31
2022-08-28T08:51:59.279Z,101819.88
2022-08-28T08:54:25.600Z,101819.88
2022-08-28T08:56:54.483Z,101819.47
2022-08-28T08:59:23.164Z,101822.78
2022-08-28T09:01:52.977Z,101823.72
2022-08-28T09:04:25.934Z,101821.75
2022-08-28T09:06:56.457Z,101820.97
2022-08-28T09:09:27.103Z,101818.13
2022-08-28T09:11:57.441Z,101825.00
2022-08-28T09:14:29.598Z,101819.22
2022-08-28T09:16:56.367Z,101812.69
2022-08-28T09:19:22.678Z,101817.84
2022-08-28T09:21:50.039Z,101813.97
2022-08-28T09:24:21.201Z,101820.94
2022-08-28T09:26:55.023Z,101816.09
2022-08-28T09:29:24.190Z,101824.84
2022-08-28T09:31:50.512Z,101817.84
2022-08-28T09:34:22.010Z,101825.03
2022-08-28T09:36:48.336Z,101822.56
2022-08-28T09:39:17.164Z,101816.88
2022-08-28T09:41:56.513Z,101815.09
2022-08-28T09:44:22.897Z,101817.22
2022-08-28T09:46:50.243Z,101813.38
2022-08-28T09:49:22.779Z,101805.09
2022-08-28T09:51:49.095Z,101814.06
2022-08-28T09:54:19.232Z,101816.56
2022-08-28T09:56:45.787Z,101819.47
2022-08-28T09:59:14.796Z,101822.47
2022-08-28T10:01:47.678Z,101817.59
2022-08-28T10:04:31.809Z,101809.56
2022-08-28T10:07:01.587Z,101812.31
2022-08-28T10:09:32.435Z,101822.53
2022-08-28T10:12:02.430Z,101817.94
2022-08-28T10:14:39.224Z,101815.66
2022-08-28T10:17:10.475Z,101813.56
2022-08-28T10:19:42.299Z,101814.63
2022-08-28T10:22:14.442Z,101813.28
2022-08-28T10:24:47.799Z,101813.66
2022-08-28T10:27:18.795Z,101818.97
2022-08-28T10:29:52.463Z,101810.72
2022-08-28T10:32:28.038Z,101814.34
2022-08-28T10:35:01.115Z,101807.34
2022-08-28T10:37:33.892Z,101816.09
2022-08-28T10:40:02.370Z,101805.81
2022-08-28T10:42:35.936Z,101818.56
2022-08-28T10:45:05.990Z,101804.66
2022-08-28T10:47:34.316Z,101809.66
2022-08-28T10:50:04.834Z,101806.56
2022-08-28T10:52:33.193Z,101806.56
2022-08-28T10:55:03.021Z,101809.50
2022-08-28T10:57:33.920Z,101818.66
2022-08-28T11:00:06.650Z,101812.63
2022-08-28T11:02:33.372Z,101814.72
2022-08-28T11:04:59.750Z,101804.34
2022-08-28T11:07:30.054Z,101808.31
2022-08-28T11:10:15.138Z,101811.44
2022-08-28T11:12:42.248Z,101810.81
2022-08-28T11:15:23.438Z,101805.59
2022-08-28T11:17:52.208Z,101808.72
2022-08-28T11:20:20.767Z,101803.50
2022-08-28T11:22:49.592Z,101808.09
2022-08-28T11:25:18.745Z,101806.00
2022-08-28T11:28:07.570Z,101807.00
2022-08-28T11:30:34.887Z,101808.84
2022-08-28T11:33:03.800Z,101813.44
2022-08-28T11:35:47.259Z,101813.81
2022-08-28T11:38:28.462Z,101813.41
2022-08-28T11:40:56.116Z,101814.81
2022-08-28T11:43:40.412Z,101803.72
2022-08-28T11:46:24.158Z,101811.06
2022-08-28T11:48:52.338Z,101818.16
2022-08-28T11:51:35.523Z,101814.78
2022-08-28T11:54:08.322Z,101812.28
2022-08-28T11:56:48.175Z,101816.22
2022-08-28T11:59:25.762Z,101811.13
2022-08-28T12:02:16.368Z,101804.09
2022-08-28T12:04:44.469Z,101806.56
2022-08-28T12:07:19.145Z,101807.25
2022-08-28T12:09:46.503Z,101805.88
2022-08-28T12:12:33.817Z,101809.19
2022-08-28T12:15:03.519Z,101787.00
2022-08-28T12:17:40.511Z,101798.19
2022-08-28T12:20:08.635Z,101810.69
2022-08-28T12:22:41.726Z,101807.09
2022-08-28T12:25:15.141Z,101803.47
2022-08-28T12:27:41.546Z,101796.06
2022-08-28T12:30:09.433Z,101803.34
2022-08-28T12:32:38.529Z,101802.88
2022-08-28T12:35:14.645Z,101794.53
2022-08-28T12:37:52.190Z,101792.19
2022-08-28T12:40:22.247Z,101788.94
2022-08-28T12:42:54.535Z,101793.31
2022-08-28T12:45:25.854Z,101794.88
2022-08-28T12:47:54.283Z,101788.69
2022-08-28T12:50:21.990Z,101791.50
2022-08-28T12:52:49.326Z,101791.59
2022-08-28T12:55:15.832Z,101787.41
2022-08-28T12:57:44.551Z,101791.56
2022-08-28T13:00:11.534Z,101790.81
2022-08-28T13:02:41.155Z,101784.38
2022-08-28T13:05:09.231Z,101777.44
2022-08-28T13:07:38.106Z,101783.47
2022-08-28T13:10:16.837Z,101781.38
2022-08-28T13:12:56.306Z,101774.72
2022-08-28T13:15:43.573Z,101774.94
2022-08-28T13:18:33.145Z,101781.19
2022-08-28T13:21:10.944Z,101772.19
2022-08-28T13:23:37.249Z,101774.25
2022-08-28T13:26:03.815Z,101770.09
2022-08-28T13:28:30.187Z,101766.13
2022-08-28T13:30:57.259Z,101759.63
2022-08-28T13:33:25.711Z,101757.94
2022-08-28T13:35:52.698Z,101750.41
2022-08-28T13:38:19.688Z,101752.00
2022-08-28T13:41:03.410Z,101755.97
2022-08-28T13:43:42.147Z,101760.16
2022-08-28T13:46:08.531Z,101766.97
2022-08-28T13:48:36.226Z,101766.25
2022-08-28T13:51:04.844Z,101758.38
2022-08-28T13:53:31.404Z,101755.81
2022-08-28T13:55:58.863Z,101756.88
2022-08-28T13:58:25.253Z,101748.16
2022-08-28T14:00:51.644Z,101748.25
2022-08-28T14:03:18.419Z,101739.91
2022-08-28T14:05:46.042Z,101750.78
2022-08-28T14:08:12.356Z,101744.19
2022-08-28T14:10:38.706Z,101749.66
2022-08-28T14:13:05.036Z,101750.75
2022-08-28T14:15:31.358Z,101743.25
2022-08-28T14:17:57.663Z,101745.97
2022-08-28T14:20:23.987Z,101747.22
2022-08-28T14:22:51.670Z,101738.88
2022-08-28T14:25:18.063Z,101733.44
2022-08-28T14:27:44.388Z,101741.13
2022-08-28T14:30:11.491Z,101735.50
2022-08-28T14:32:38.286Z,101734.66
2022-08-28T14:35:05.104Z,101738.72
2022-08-28T14:37:31.437Z,101726.16
2022-08-28T14:39:59.174Z,101728.03
2022-08-28T14:42:25.515Z,101730.19
2022-08-28T14:44:51.932Z,101735.31
2022-08-28T14:47:18.335Z,101726.16
2022-08-28T14:49:44.758Z,101732.31
2022-08-28T14:52:11.312Z,101727.22
2022-08-28T14:54:38.443Z,101727.38
2022-08-28T14:57:06.376Z,101728.28
2022-08-28T14:59:32.699Z,101729.97
2022-08-28T15:01:59.321Z,101724.28
2022-08-28T15:04:27.388Z,101721.34
2022-08-28T15:06:56.118Z,101720.50
2022-08-28T15:09:22.418Z,101719.88
2022-08-28T15:11:48.785Z,101722.16
2022-08-28T15:14:16.659Z,101709.44
2022-08-28T15:16:44.572Z,101714.19
2022-08-28T15:19:11.643Z,101715.44
2022-08-28T15:21:38.676Z,101714.75
2022-08-28T15:24:05.791Z,101721.69
2022-08-28T15:26:32.976Z,101719.28
2022-08-28T15:28:59.364Z,101719.31
2022-08-28T15:31:27.087Z,101712.28
2022-08-28T15:33:53.424Z,101710.44
2022-08-28T15:36:19.949Z,101717.69
2022-08-28T15:38:46.263Z,101721.88
2022-08-28T15:41:12.605Z,101706.66
2022-08-28T15:43:38.919Z,101713.09
2022-08-28T15:46:12.821Z,101708.88
2022-08-28T15:48:40.515Z,101710.41
2022-08-28T15:51:06.967Z,101710.81
2022-08-28T15:53:33.452Z,101708.13
2022-08-28T15:56:00.656Z,101708.94
2022-08-28T15:58:27.064Z,101703.16
2022-08-28T16:00:53.476Z,101713.50
2022-08-28T16:03:19.844Z,101711.78
2022-08-28T16:05:47.503Z,101713.09
2022-08-28T16:08:13.840Z,101706.75
2022-08-28T16:10:40.180Z,101706.97
2022-08-28T16:13:06.709Z,101710.34
2022-08-28T16:15:33.195Z,101702.44
2022-08-28T16:17:59.519Z,101697.22
2022-08-28T16:20:25.855Z,101695.34
2022-08-28T16:22:53.524Z,101704.28
2022-08-28T16:25:19.938Z,101702.66
2022-08-28T16:27:46.292Z,101710.94
2022-08-28T16:30:15.688Z,101708.28
2022-08-28T16:32:42.534Z,101713.53
2022-08-28T16:35:13.416Z,101713.53
2022-08-28T16:37:40.306Z,101717.91
2022-08-28T16:40:09.115Z,101712.09
2022-08-28T16:42:35.491Z,101714.00
2022-08-28T16:45:02.021Z,101709.41
2022-08-28T16:47:28.393Z,101713.81
2022-08-28T16:49:58.284Z,101705.06
2022-08-28T16:52:24.622Z,101715.03
2022-08-28T16:54:51.405Z,101707.56
2022-08-28T16:57:19.710Z,101707.78
2022-08-28T16:59:46.488Z,101709.00
2022-08-28T17:02:13.416Z,101705.06
2022-08-28T17:04:39.918Z,101713.19
2022-08-28T17:07:06.283Z,101702.16
2022-08-28T17:09:32.675Z,101707.34
2022-08-28T17:11:59.148Z,101705.66
2022-08-28T17:14:27.370Z,101713.19
2022-08-28T17:16:53.707Z,101704.44
2022-08-28T17:19:20.027Z,101702.34
2022-08-28T17:21:46.337Z,101705.06
2022-08-28T17:24:12.714Z,101701.31
2022-08-28T17:26:39.570Z,101699.03
2022-08-28T17:29:05.951Z,101706.50
2022-08-28T17:31:33.835Z,101703.59
2022-08-28T17:34:00.246Z,101703.59
2022-08-28T17:36:33.305Z,101710.03
2022-08-28T17:39:00.786Z,101705.25
2022-08-28T17:41:27.143Z,101708.97
2022-08-28T17:43:53.488Z,101712.53
2022-08-28T17:46:19.862Z,101708.94
2022-08-28T17:48:54.370Z,101714.91
2022-08-28T17:51:23.456Z,101704.72
2022-08-28T17:54:08.943Z,101705.94
2022-08-28T17:56:36.134Z,101713.41
2022-08-28T17:59:02.752Z,101708.81
2022-08-28T18:01:29.119Z,101711.06
2022-08-28T18:03:56.870Z,101718.53
2022-08-28T18:06:23.524Z,101718.25
2022-08-28T18:08:49.915Z,101718.19
2022-08-28T18:11:16.238Z,101715.19
2022-08-28T18:13:42.581Z,101722.63
2022-08-28T18:16:09.107Z,101718.03
2022-08-28T18:18:36.325Z,101720.72
2022-08-28T18:21:04.408Z,101717.56
2022-08-28T18:23:30.733Z,101727.88
2022-08-28T18:25:57.038Z,101722.66
2022-08-28T18:28:24.487Z,101722.38
2022-08-28T18:30:52.839Z,101726.25
2022-08-28T18:33:20.358Z,101740.13
2022-08-28T18:35:49.406Z,101741.28
2022-08-28T18:38:17.726Z,101732.84
2022-08-28T18:40:44.387Z,101731.56
2022-08-28T18:43:11.028Z,101745.50
2022-08-28T18:45:37.438Z,101743.41
2022-08-28T18:48:04.039Z,101752.22
2022-08-28T18:50:31.115Z,101751.59
2022-08-28T18:52:58.318Z,101751.91
2022-08-28T18:55:27.341Z,101754.34
2022-08-28T18:57:53.654Z,101755.44
2022-08-28T19:00:22.113Z,101766.63
2022-08-28T19:02:48.552Z,101770.03
2022-08-28T19:05:14.945Z,101773.31
2022-08-28T19:07:41.322Z,101780.75
2022-08-28T19:10:22.763Z,101776.09
2022-08-28T19:12:56.114Z,101777.41
2022-08-28T19:15:22.443Z,101788.75
2022-08-28T19:17:48.799Z,101786.22
2022-08-28T19:20:16.297Z,101793.34
2022-08-28T19:22:42.899Z,101791.22
2022-08-28T19:25:13.320Z,101789.06
2022-08-28T19:27:56.362Z,101794.44
2022-08-28T19:30:26.459Z,101788.50
2022-08-28T19:32:52.795Z,101790.75
2022-08-28T19:35:19.247Z,101801.03
2022-08-28T19:37:45.615Z,101789.97
2022-08-28T19:40:12.967Z,101795.72
2022-08-28T19:42:39.462Z,101793.22
2022-08-28T19:45:09.117Z,101798.94
2022-08-28T19:47:35.968Z,101798.19
2022-08-28T19:50:02.531Z,101792.81
2022-08-28T19:52:28.858Z,101802.06
2022-08-28T19:54:55.491Z,101810.69
2022-08-28T19:57:21.990Z,101798.63
2022-08-28T19:59:48.847Z,101806.50
2022-08-28T20:02:16.623Z,101812.25
2022-08-28T20:04:42.985Z,101811.31
2022-08-28T20:07:09.278Z,101819.53
2022-08-28T20:09:35.626Z,101814.41
2022-08-28T20:12:01.976Z,101817.97
2022-08-28T20:14:28.283Z,101828.56
2022-08-28T20:16:54.699Z,101822.50
2022-08-28T20:19:22.344Z,101835.09
2022-08-28T20:21:49.288Z,101830.59
2022-08-28T20:24:17.604Z,101837.16
2022-08-28T20:26:44.315Z,101833.34
2022-08-28T20:29:10.862Z,101830.34
2022-08-28T20:31:37.566Z,101821.16
2022-08-28T20:34:03.871Z,101835.09
2022-08-28T20:36:31.570Z,101838.50
2022-08-28T20:38:57.882Z,101839.03
2022-08-28T20:41:24.354Z,101844.44
2022-08-28T20:43:50.700Z,101843.94
2022-08-28T20:46:17.316Z,101851.16
2022-08-28T20:48:44.270Z,101854.00
2022-08-28T20:51:10.598Z,101865.13
2022-08-28T20:53:38.267Z,101866.81
2022-08-28T20:56:05.894Z,101873.50
2022-08-28T20:58:32.245Z,101874.22
2022-08-28T21:00:59.396Z,101874.03
2022-08-28T21:03:27.227Z,101877.41
2022-08-28T21:05:54.812Z,101871.72
2022-08-28T21:08:21.124Z,101876.94
2022-08-28T21:10:51.379Z,101867.53
2022-08-28T21:13:17.723Z,101877.44
2022-08-28T21:15:44.022Z,101865.41
2022-08-28T21:18:10.425Z,101867.41
2022-08-28T21:20:38.523Z,101867.25
2022-08-28T21:23:05.158Z,101871.13
2022-08-28T21:25:31.478Z,101865.06
2022-08-28T21:27:59.120Z,101869.06
2022-08-28T21:30:30.486Z,101871.44
2022-08-28T21:32:57.122Z,101878.13
2022-08-28T21:35:23.527Z,101883.66
2022-08-28T21:37:49.916Z,101880.16
2022-08-28T21:40:16.767Z,101881.66
2022-08-28T21:42:43.551Z,101884.53
2022-08-28T21:45:12.386Z,101885.84
2022-08-28T21:47:39.218Z,101880.84
2022-08-28T21:50:06.027Z,101881.16
2022-08-28T21:52:32.360Z,101881.34
2022-08-28T21:54:59.918Z,101879.97
2022-08-28T21:57:26.673Z,101887.88
2022-08-28T21:59:53.023Z,101893.91
2022-08-28T22:02:20.777Z,101899.59
2022-08-28T22:04:47.162Z,101894.41
2022-08-28T22:07:13.492Z,101900.75
2022-08-28T22:09:40.005Z,101893.72
2022-08-28T22:12:06.441Z,101895.56
2022-08-28T22:14:32.765Z,101887.03
2022-08-28T22:16:59.142Z,101886.19
2022-08-28T22:19:26.863Z,101879.47
2022-08-28T22:21:53.227Z,101886.53
2022-08-28T22:24:19.563Z,101889.72
2022-08-28T22:26:45.863Z,101895.56
2022-08-28T22:29:12.207Z,101891.88
2022-08-28T22:31:45.593Z,101888.84
2022-08-28T22:34:12.531Z,101888.00
2022-08-28T22:36:40.262Z,101882.31
2022-08-28T22:39:06.564Z,101892.84
2022-08-28T22:41:32.970Z,101892.69
2022-08-28T22:43:59.304Z,101897.03
2022-08-28T22:46:25.623Z,101898.50
2022-08-28T22:48:52.152Z,101903.22
2022-08-28T22:51:18.698Z,101902.69
2022-08-28T22:53:46.795Z,101902.16
2022-08-28T22:56:13.458Z,101892.97
2022-08-28T22:58:39.823Z,101888.72
2022-08-28T23:01:07.463Z,101891.56
2022-08-28T23:03:33.879Z,101890.03
2022-08-28T23:06:00.264Z,101892.22
2022-08-28T23:08:30.784Z,101889.88
2022-08-28T23:11:01.470Z,101883.00
2022-08-28T23:13:27.871Z,101887.16
2022-08-28T23:15:54.186Z,101888.63
2022-08-28T23:18:20.564Z,101885.97
2022-08-28T23:20:47.111Z,101887.94
2022-08-28T23:23:16.887Z,101888.94
2022-08-28T23:25:43.190Z,101891.81
2022-08-28T23:28:10.865Z,101887.78
2022-08-28T23:30:37.191Z,101880.88
2022-08-28T23:33:03.731Z,101886.09
2022-08-28T23:35:34.699Z,101888.91
2022-08-28T23:38:01.339Z,101892.59
2022-08-28T23:40:28.200Z,101895.63
2022-08-28T23:42:56.288Z,101899.13
2022-08-28T23:45:24.068Z,101895.38
2022-08-28T23:47:50.655Z,101892.53
2022-08-28T23:50:18.408Z,101894.50
2022-08-28T23:52:45.163Z,101899.19
2022-08-28T23:55:12.116Z,101894.13
2022-08-28T23:57:38.814Z,101897.16
